createdAt,value
2018-12-06T00:01:01.665Z,96.00
2018-12-06T00:03:30.195Z,96.00
2018-12-06T00:05:58.819Z,95.90
2018-12-06T00:08:27.364Z,96.00
2018-12-06T00:10:55.817Z,96.10
2018-12-06T00:13:24.416Z,96.30
2018-12-06T00:15:52.883Z,96.40
2018-12-06T00:18:21.295Z,96.40
2018-12-06T00:20:49.853Z,96.40
2018-12-06T00:23:18.346Z,96.50
2018-12-06T00:25:46.858Z,96.40
2018-12-06T00:28:15.350Z,96.40
2018-12-06T00:30:43.888Z,96.40
2018-12-06T00:33:12.318Z,96.40
2018-12-06T00:35:40.739Z,96.40
2018-12-06T00:38:09.215Z,96.30
2018-12-06T00:40:37.776Z,96.20
2018-12-06T00:43:06.298Z,96.20
2018-12-06T00:45:34.847Z,96.40
2018-12-06T00:48:03.277Z,96.30
2018-12-06T00:50:31.878Z,96.30
2018-12-06T00:53:00.607Z,96.30
2018-12-06T00:55:29.067Z,96.30
2018-12-06T00:57:57.594Z,96.20
2018-12-06T01:00:26.061Z,96.30
2018-12-06T01:02:54.522Z,96.20
2018-12-06T01:05:22.971Z,96.10
2018-12-06T01:07:51.396Z,96.00
2018-12-06T01:10:19.839Z,96.00
2018-12-06T01:12:50.295Z,96.20
2018-12-06T01:15:18.807Z,96.00
2018-12-06T01:17:47.265Z,95.60
2018-12-06T01:20:15.774Z,95.60
2018-12-06T01:22:44.340Z,95.60
2018-12-06T01:25:13.431Z,95.80
2018-12-06T01:27:42.036Z,96.00
2018-12-06T01:30:10.690Z,96.00
2018-12-06T01:32:39.178Z,96.00
2018-12-06T01:35:08.043Z,96.10
2018-12-06T01:37:36.598Z,96.60
2018-12-06T01:40:05.266Z,96.30
2018-12-06T01:42:34.324Z,96.30
2018-12-06T01:45:03.395Z,96.20
2018-12-06T01:47:31.898Z,96.60
2018-12-06T01:50:00.395Z,96.20
2018-12-06T01:52:28.836Z,96.30
2018-12-06T01:54:58.229Z,96.20
2018-12-06T01:57:26.757Z,96.30
2018-12-06T01:59:55.260Z,96.20
2018-12-06T02:02:23.699Z,96.20
2018-12-06T02:04:52.307Z,96.30
2018-12-06T02:07:21.137Z,96.30
2018-12-06T02:09:49.639Z,96.40
2018-12-06T02:12:18.271Z,96.30
2018-12-06T02:14:46.711Z,96.50
2018-12-06T02:17:15.201Z,96.30
2018-12-06T02:19:43.722Z,96.40
2018-12-06T02:22:12.563Z,96.40
2018-12-06T02:24:41.050Z,96.30
2018-12-06T02:27:09.480Z,96.20
2018-12-06T02:29:43.100Z,96.20
2018-12-06T02:32:11.665Z,96.20
2018-12-06T02:34:40.090Z,96.10
2018-12-06T02:37:10.120Z,96.00
2018-12-06T02:39:38.563Z,96.00
2018-12-06T02:42:06.997Z,95.90
2018-12-06T02:44:35.782Z,96.20
2018-12-06T02:47:04.304Z,95.80
2018-12-06T02:49:32.966Z,95.80
2018-12-06T02:52:01.417Z,95.70
2018-12-06T02:54:29.884Z,95.60
2018-12-06T02:56:58.319Z,95.60
2018-12-06T02:59:26.893Z,95.60
2018-12-06T03:01:55.402Z,95.60
2018-12-06T03:04:23.962Z,95.70
2018-12-06T03:06:52.455Z,95.50
2018-12-06T03:09:20.986Z,95.60
2018-12-06T03:11:49.439Z,95.70
2018-12-06T03:14:17.919Z,95.60
2018-12-06T03:16:46.388Z,95.60
2018-12-06T03:19:14.927Z,95.70
2018-12-06T03:21:43.428Z,95.60
2018-12-06T03:24:11.976Z,95.60
2018-12-06T03:26:40.669Z,95.60
2018-12-06T03:29:09.119Z,95.60
2018-12-06T03:31:37.637Z,95.50
2018-12-06T03:34:06.127Z,95.70
2018-12-06T03:36:34.647Z,95.50
2018-12-06T03:39:04.858Z,95.70
2018-12-06T03:41:33.805Z,95.70
2018-12-06T03:44:02.216Z,95.80
2018-12-06T03:46:30.662Z,95.50
2018-12-06T03:48:59.119Z,95.60
2018-12-06T03:51:27.594Z,95.50
2018-12-06T03:53:56.115Z,95.60
2018-12-06T03:56:24.586Z,95.30
2018-12-06T03:58:52.993Z,95.40
2018-12-06T04:01:21.419Z,95.40
2018-12-06T04:03:49.839Z,95.50
2018-12-06T04:06:18.255Z,95.50
2018-12-06T04:08:46.691Z,95.40
2018-12-06T04:11:15.213Z,95.30
2018-12-06T04:13:43.685Z,95.40
2018-12-06T04:16:12.110Z,95.40
2018-12-06T04:18:40.555Z,95.40
2018-12-06T04:21:09.020Z,95.40
2018-12-06T04:23:37.442Z,95.40
2018-12-06T04:26:05.905Z,95.40
2018-12-06T04:28:34.338Z,95.40
2018-12-06T04:31:02.791Z,95.20
2018-12-06T04:33:31.272Z,95.40
2018-12-06T04:35:59.920Z,95.40
2018-12-06T04:38:28.607Z,95.50
2018-12-06T04:40:57.011Z,95.80
2018-12-06T04:43:25.451Z,95.30
2018-12-06T04:45:53.919Z,95.30
2018-12-06T04:48:23.927Z,95.40
2018-12-06T04:50:52.428Z,95.30
2018-12-06T04:53:20.892Z,95.40
2018-12-06T04:55:49.311Z,95.20
2018-12-06T04:58:17.929Z,95.20
2018-12-06T05:00:46.480Z,95.00
2018-12-06T05:03:14.899Z,95.10
2018-12-06T05:05:43.381Z,95.20
2018-12-06T05:08:11.857Z,95.30
2018-12-06T05:10:40.311Z,95.20
2018-12-06T05:13:08.855Z,95.40
2018-12-06T05:15:37.357Z,95.60
2018-12-06T05:18:05.807Z,95.30
2018-12-06T05:20:34.351Z,95.30
2018-12-06T05:23:02.805Z,95.30
2018-12-06T05:25:31.294Z,95.30
2018-12-06T05:27:59.839Z,95.70
2018-12-06T05:30:28.514Z,95.50
2018-12-06T05:32:57.035Z,95.60
2018-12-06T05:35:26.115Z,95.60
2018-12-06T05:37:54.561Z,95.40
2018-12-06T05:40:23.027Z,95.40
2018-12-06T05:42:51.520Z,95.40
2018-12-06T05:45:19.965Z,95.40
2018-12-06T05:47:48.544Z,95.30
2018-12-06T05:50:17.009Z,95.50
2018-12-06T05:52:45.514Z,95.70
2018-12-06T05:55:14.000Z,95.90
2018-12-06T05:57:42.426Z,96.10
2018-12-06T06:00:10.942Z,96.10
2018-12-06T06:02:39.376Z,96.10
2018-12-06T06:05:08.123Z,96.00
2018-12-06T06:07:36.534Z,96.20
2018-12-06T06:10:05.578Z,96.30
2018-12-06T06:12:33.998Z,96.20
2018-12-06T06:15:04.568Z,96.00
2018-12-06T06:17:33.035Z,96.20
2018-12-06T06:20:01.500Z,96.10
2018-12-06T06:22:30.111Z,96.00
2018-12-06T06:24:58.679Z,96.20
2018-12-06T06:27:27.146Z,96.20
2018-12-06T06:29:55.624Z,96.30
2018-12-06T06:32:24.175Z,96.40
2018-12-06T06:34:52.776Z,96.50
2018-12-06T06:37:21.314Z,96.70
2018-12-06T06:39:49.731Z,96.80
2018-12-06T06:42:18.207Z,96.90
2018-12-06T06:44:46.791Z,97.00
2018-12-06T06:47:15.298Z,97.40
2018-12-06T06:49:43.825Z,97.20
2018-12-06T06:52:12.270Z,97.30
2018-12-06T06:54:40.695Z,97.80
2018-12-06T06:57:09.140Z,97.40
2018-12-06T06:59:37.547Z,97.50
2018-12-06T07:02:06.425Z,97.60
2018-12-06T07:04:34.921Z,97.50
2018-12-06T07:07:03.636Z,97.40
2018-12-06T07:09:32.061Z,97.90
2018-12-06T07:12:00.672Z,97.60
2018-12-06T07:14:29.096Z,97.40
2018-12-06T07:16:57.607Z,97.10
2018-12-06T07:19:26.083Z,97.30
2018-12-06T07:21:54.514Z,97.40
2018-12-06T07:24:23.049Z,97.40
2018-12-06T07:26:51.495Z,97.30
2018-12-06T07:29:20.123Z,97.50
2018-12-06T07:31:48.602Z,97.30
2018-12-06T07:34:17.048Z,97.40
2018-12-06T07:36:45.503Z,97.60
2018-12-06T07:39:13.956Z,97.50
2018-12-06T07:41:42.515Z,97.60
2018-12-06T07:44:10.997Z,97.70
2018-12-06T07:46:39.485Z,97.60
2018-12-06T07:49:08.245Z,97.60
2018-12-06T07:51:36.691Z,97.20
2018-12-06T07:54:05.497Z,97.40
2018-12-06T07:56:33.952Z,97.30
2018-12-06T07:59:02.511Z,97.70
2018-12-06T08:01:30.999Z,97.50
2018-12-06T08:03:59.442Z,97.70
2018-12-06T08:06:27.905Z,97.70
2018-12-06T08:08:56.353Z,97.40
2018-12-06T08:11:24.906Z,97.40
2018-12-06T08:13:53.481Z,97.30
2018-12-06T08:16:21.914Z,97.20
2018-12-06T08:18:50.500Z,97.30
2018-12-06T08:21:19.066Z,97.30
2018-12-06T08:23:47.513Z,97.40
2018-12-06T08:26:16.070Z,97.40
2018-12-06T08:28:44.598Z,97.40
2018-12-06T08:31:13.215Z,97.50
2018-12-06T08:33:41.733Z,97.70
2018-12-06T08:36:10.422Z,97.70
2018-12-06T08:38:39.068Z,97.60
2018-12-06T08:41:07.510Z,97.70
2018-12-06T08:43:35.977Z,97.60
2018-12-06T08:46:04.674Z,97.50
2018-12-06T08:48:33.163Z,97.60
2018-12-06T08:51:01.716Z,98.10
2018-12-06T08:53:30.171Z,97.70
2018-12-06T08:55:58.793Z,97.70
2018-12-06T08:58:27.253Z,97.60
2018-12-06T09:00:56.002Z,97.10
2018-12-06T09:03:24.504Z,97.10
2018-12-06T09:05:52.969Z,96.90
2018-12-06T09:08:21.566Z,96.70
2018-12-06T09:10:51.726Z,96.70
2018-12-06T09:13:20.512Z,97.00
2018-12-06T09:15:48.964Z,96.80
2018-12-06T09:18:17.495Z,96.80
2018-12-06T09:20:45.963Z,96.90
2018-12-06T09:23:14.424Z,96.90
2018-12-06T09:25:42.866Z,97.20
2018-12-06T09:28:11.307Z,96.90
2018-12-06T09:30:39.739Z,97.00
2018-12-06T09:33:08.315Z,96.80
2018-12-06T09:35:36.755Z,96.70
2018-12-06T09:38:05.328Z,96.80
2018-12-06T09:40:33.754Z,96.60
2018-12-06T09:43:02.197Z,96.70
2018-12-06T09:45:30.620Z,96.70
2018-12-06T09:47:59.060Z,96.60
2018-12-06T09:50:27.513Z,96.50
2018-12-06T09:52:55.946Z,96.40
2018-12-06T10:09:00.144Z,95.70
2018-12-06T10:11:28.568Z,95.20
2018-12-06T10:13:57.074Z,95.50
2018-12-06T10:16:25.496Z,95.00
2018-12-06T10:18:54.167Z,95.00
2018-12-06T10:21:22.761Z,95.00
2018-12-06T10:23:51.221Z,94.70
2018-12-06T10:26:19.794Z,94.80
2018-12-06T10:28:48.238Z,95.00
2018-12-06T10:31:16.699Z,95.30
2018-12-06T10:33:45.151Z,95.10
2018-12-06T10:36:13.583Z,95.20
2018-12-06T10:38:41.996Z,95.10
2018-12-06T10:41:10.443Z,94.90
2018-12-06T10:43:39.008Z,94.80
2018-12-06T10:46:07.489Z,94.40
2018-12-06T10:48:36.019Z,94.20
2018-12-06T10:51:15.846Z,94.00
2018-12-06T10:53:44.553Z,94.30
2018-12-06T10:56:13.115Z,94.10
2018-12-06T10:58:41.771Z,93.80
2018-12-06T11:01:12.234Z,93.80
2018-12-06T11:03:46.050Z,93.60
2018-12-06T11:06:14.499Z,93.60
2018-12-06T11:08:42.916Z,93.90
2018-12-06T11:11:11.341Z,93.60
2018-12-06T11:13:39.886Z,93.70
2018-12-06T11:16:08.338Z,93.80
2018-12-06T11:18:36.766Z,94.10
2018-12-06T11:21:05.213Z,94.20
2018-12-06T11:23:33.641Z,94.00
2018-12-06T11:26:02.360Z,93.90
2018-12-06T11:28:30.822Z,93.70
2018-12-06T11:30:59.495Z,93.30
2018-12-06T11:33:28.724Z,93.00
2018-12-06T11:35:57.430Z,92.60
2018-12-06T11:38:25.958Z,92.70
2018-12-06T11:40:54.410Z,92.90
2018-12-06T11:43:22.824Z,93.00
2018-12-06T11:45:52.630Z,92.70
2018-12-06T11:48:26.887Z,92.80
2018-12-06T11:50:52.692Z,92.70
2018-12-06T11:53:21.151Z,92.30
2018-12-06T11:55:49.596Z,92.00
2018-12-06T11:58:18.170Z,91.40
2018-12-06T12:00:46.574Z,91.30
2018-12-06T12:03:15.490Z,91.10
2018-12-06T12:05:44.202Z,90.90
2018-12-06T12:08:12.651Z,90.40
2018-12-06T12:10:41.088Z,90.60
2018-12-06T12:13:09.524Z,90.50
2018-12-06T12:15:37.945Z,90.20
2018-12-06T12:18:06.404Z,90.40
2018-12-06T12:20:34.867Z,90.30
2018-12-06T12:23:03.638Z,90.10
2018-12-06T12:25:32.134Z,90.30
2018-12-06T12:28:00.631Z,90.30
2018-12-06T12:30:29.054Z,90.30
2018-12-06T12:32:57.537Z,90.10
2018-12-06T12:35:26.027Z,90.20
2018-12-06T12:37:54.484Z,89.00
2018-12-06T12:40:23.027Z,89.20
2018-12-06T12:42:51.537Z,89.40
2018-12-06T12:45:20.007Z,89.50
2018-12-06T12:47:48.516Z,90.00
2018-12-06T12:50:16.938Z,89.50
2018-12-06T12:53:46.141Z,89.00
2018-12-06T12:56:14.587Z,89.30
2018-12-06T12:58:43.022Z,89.00
2018-12-06T13:01:11.463Z,88.40
2018-12-06T13:03:39.868Z,88.20
2018-12-06T13:06:08.339Z,88.50
2018-12-06T13:08:36.780Z,88.90
2018-12-06T13:11:05.914Z,88.80
2018-12-06T13:13:34.766Z,89.20
2018-12-06T13:16:03.210Z,89.30
2018-12-06T13:18:31.992Z,89.20
2018-12-06T13:21:00.450Z,89.30
2018-12-06T13:23:28.896Z,89.80
2018-12-06T13:25:57.572Z,88.70
2018-12-06T13:28:26.035Z,88.50
2018-12-06T13:30:54.602Z,88.20
2018-12-06T13:33:23.076Z,88.80
2018-12-06T13:35:51.555Z,88.80
2018-12-06T13:38:20.080Z,88.10
2018-12-06T13:40:48.547Z,87.80
2018-12-06T13:43:16.980Z,88.00
2018-12-06T13:45:45.432Z,88.30
2018-12-06T13:48:13.859Z,89.00
2018-12-06T13:50:42.328Z,90.00
2018-12-06T13:53:10.769Z,89.30
2018-12-06T13:55:39.226Z,88.90
2018-12-06T13:58:07.875Z,88.50
2018-12-06T14:00:36.606Z,88.30
2018-12-06T14:03:05.317Z,88.50
2018-12-06T14:05:33.784Z,88.60
2018-12-06T14:08:02.271Z,88.20
2018-12-06T14:10:30.748Z,88.30
2018-12-06T14:12:59.314Z,88.00
2018-12-06T14:15:27.877Z,88.40
2018-12-06T14:17:56.598Z,88.40
2018-12-06T14:20:25.067Z,88.60
2018-12-06T14:22:53.556Z,88.90
2018-12-06T14:25:22.770Z,89.00
2018-12-06T14:27:51.305Z,89.10
2018-12-06T14:30:19.749Z,89.40
2018-12-06T14:32:48.200Z,90.00
2018-12-06T14:35:16.634Z,89.30
2018-12-06T14:37:45.120Z,89.50
2018-12-06T14:40:13.626Z,89.20
2018-12-06T14:42:42.051Z,88.80
2018-12-06T14:45:10.622Z,89.00
2018-12-06T14:47:39.203Z,89.50
2018-12-06T14:50:07.987Z,90.20
2018-12-06T14:52:37.056Z,90.50
2018-12-06T14:55:05.970Z,90.70
2018-12-06T14:57:34.548Z,90.80
2018-12-06T15:00:03.262Z,90.80
2018-12-06T15:02:31.757Z,91.10
2018-12-06T15:05:07.393Z,90.90
2018-12-06T15:07:36.437Z,90.90
2018-12-06T15:10:06.447Z,91.00
2018-12-06T15:12:37.670Z,91.00
2018-12-06T15:15:06.529Z,90.70
2018-12-06T15:17:35.137Z,90.90
2018-12-06T15:20:04.114Z,91.00
2018-12-06T15:22:32.634Z,90.90
2018-12-06T15:25:01.372Z,90.80
2018-12-06T15:27:30.024Z,90.60
2018-12-06T15:29:58.691Z,90.40
2018-12-06T15:32:27.193Z,90.40
2018-12-06T15:34:55.811Z,90.60
2018-12-06T15:37:24.320Z,90.30
2018-12-06T15:39:52.827Z,90.60
2018-12-06T15:42:21.287Z,90.70
2018-12-06T15:44:49.741Z,90.40
2018-12-06T15:47:18.238Z,90.20
2018-12-06T15:49:47.617Z,90.10
2018-12-06T15:52:16.592Z,89.10
2018-12-06T15:54:45.189Z,88.90
2018-12-06T15:57:13.620Z,88.80
2018-12-06T15:59:42.122Z,89.00
2018-12-06T16:02:10.572Z,89.20
2018-12-06T16:04:39.052Z,89.10
2018-12-06T16:07:07.737Z,89.60
2018-12-06T16:09:37.201Z,90.00
2018-12-06T16:12:05.754Z,89.40
2018-12-06T16:14:34.314Z,89.70
2018-12-06T16:17:02.762Z,89.70
2018-12-06T16:19:31.336Z,89.30
2018-12-06T16:21:59.803Z,89.50
2018-12-06T16:24:28.275Z,88.90
2018-12-06T16:26:56.761Z,88.90
2018-12-06T16:29:25.245Z,88.50
2018-12-06T16:31:53.821Z,88.40
2018-12-06T16:34:22.548Z,88.60
2018-12-06T16:36:51.010Z,89.00
2018-12-06T16:39:19.500Z,88.50
2018-12-06T16:41:47.969Z,88.30
2018-12-06T16:44:16.514Z,88.30
2018-12-06T16:46:45.027Z,88.30
2018-12-06T16:49:14.677Z,87.80
2018-12-06T16:51:43.142Z,87.60
2018-12-06T16:54:11.741Z,87.20
2018-12-06T16:56:40.194Z,87.00
2018-12-06T16:59:08.690Z,86.70
2018-12-06T17:01:37.409Z,87.00
2018-12-06T17:04:05.927Z,87.30
2018-12-06T17:06:34.526Z,87.00
2018-12-06T17:09:03.139Z,86.70
2018-12-06T17:11:31.735Z,86.50
2018-12-06T17:14:00.295Z,86.30
2018-12-06T17:16:29.039Z,86.60
2018-12-06T17:49:01.017Z,86.50
2018-12-06T17:51:32.285Z,86.60
2018-12-06T17:54:02.257Z,87.40
2018-12-06T17:56:31.796Z,87.40
2018-12-06T17:59:01.044Z,87.30
2018-12-06T18:01:31.089Z,87.30
2018-12-06T18:04:00.145Z,87.50
2018-12-06T18:06:29.925Z,87.40
2018-12-06T18:09:00.979Z,87.60
2018-12-06T18:11:31.228Z,87.90
2018-12-06T18:14:00.442Z,88.10
2018-12-06T18:16:29.404Z,88.30
2018-12-06T18:18:58.597Z,88.40
2018-12-06T18:21:27.533Z,88.50
2018-12-06T18:23:56.675Z,88.70
2018-12-06T18:26:29.554Z,89.10
2018-12-06T18:28:58.564Z,89.10
2018-12-06T18:31:27.481Z,89.00
2018-12-06T18:33:56.393Z,89.20
2018-12-06T18:36:25.284Z,89.10
2018-12-06T18:38:54.197Z,89.40
2018-12-06T18:41:23.065Z,89.30
2018-12-06T18:43:52.211Z,89.50
2018-12-06T18:46:21.814Z,90.00
2018-12-06T18:48:50.761Z,89.90
2018-12-06T18:51:20.078Z,90.10
2018-12-06T18:53:51.830Z,90.30
2018-12-06T18:56:25.174Z,90.40
2018-12-06T18:58:55.046Z,90.40
2018-12-06T19:01:24.116Z,90.40
2018-12-06T19:03:53.278Z,90.50
2018-12-06T19:06:22.122Z,90.60
2018-12-06T19:08:51.581Z,90.60
2018-12-06T19:11:21.064Z,90.70
2018-12-06T19:13:51.322Z,90.70
2018-12-06T19:16:20.926Z,90.80
2018-12-06T19:18:51.835Z,90.90
2018-12-06T19:21:20.779Z,90.90
2018-12-06T19:23:49.791Z,90.80
2018-12-06T19:26:19.088Z,90.70
2018-12-06T19:28:48.783Z,90.60
2018-12-06T19:31:17.881Z,90.50
2018-12-06T19:33:48.157Z,90.70
2018-12-06T19:36:17.298Z,90.70
2018-12-06T19:38:49.637Z,90.70
2018-12-06T19:41:18.629Z,90.90
2018-12-06T19:43:48.717Z,90.80
2018-12-06T19:46:17.699Z,90.70
2018-12-06T19:48:46.971Z,90.90
2018-12-06T19:51:16.062Z,90.90
2018-12-06T19:53:45.042Z,91.00
2018-12-06T19:56:13.993Z,91.10
2018-12-06T19:58:42.931Z,91.10
2018-12-06T20:01:11.724Z,91.10
2018-12-06T20:03:40.634Z,91.30
2018-12-06T20:06:09.770Z,91.40
2018-12-06T20:08:38.643Z,91.30
2018-12-06T20:11:08.282Z,91.50
2018-12-06T20:13:37.301Z,91.60
2018-12-06T20:16:06.228Z,91.50
2018-12-06T20:18:36.679Z,91.50
2018-12-06T20:21:05.531Z,91.40
2018-12-06T20:23:34.308Z,91.50
2018-12-06T20:26:03.332Z,91.40
2018-12-06T20:28:32.933Z,91.80
2018-12-06T20:31:01.850Z,91.50
2018-12-06T20:33:30.679Z,91.50
2018-12-06T20:35:59.580Z,91.60
2018-12-06T20:38:28.410Z,92.00
2018-12-06T20:40:57.212Z,91.70
2018-12-06T20:43:26.147Z,91.60
2018-12-06T20:45:54.989Z,91.50
2018-12-06T20:48:23.919Z,91.50
2018-12-06T20:50:52.843Z,91.40
2018-12-06T20:53:21.860Z,91.40
2018-12-06T20:55:51.687Z,91.50
2018-12-06T20:58:20.698Z,91.60
2018-12-06T21:00:51.235Z,91.60
2018-12-06T21:03:21.258Z,91.80
2018-12-06T21:05:49.864Z,91.30
2018-12-06T21:08:18.449Z,91.40
2018-12-06T21:10:47.062Z,91.10
2018-12-06T21:13:15.602Z,91.10
2018-12-06T21:15:44.126Z,90.70
2018-12-06T21:18:12.634Z,90.60
2018-12-06T21:20:41.304Z,90.50
2018-12-06T21:23:09.938Z,90.60
2018-12-06T21:25:38.529Z,90.60
2018-12-06T21:28:07.123Z,90.60
2018-12-06T21:30:35.659Z,90.60
2018-12-06T21:33:04.874Z,90.60
2018-12-06T21:35:33.348Z,90.50
2018-12-06T21:38:01.949Z,90.40
2018-12-06T21:40:30.559Z,90.50
2018-12-06T21:42:59.014Z,90.50
2018-12-06T21:45:27.532Z,90.50
2018-12-06T21:47:55.979Z,90.40
2018-12-06T21:50:24.515Z,90.40
2018-12-06T21:52:52.983Z,90.60
2018-12-06T21:55:21.426Z,90.50
2018-12-06T21:57:50.833Z,90.60
2018-12-06T22:00:19.305Z,90.70
2018-12-06T22:02:47.744Z,90.60
2018-12-06T22:05:16.460Z,90.60
2018-12-06T22:07:44.898Z,90.50
2018-12-06T22:10:13.381Z,90.40
2018-12-06T22:12:41.849Z,90.50
2018-12-06T22:15:10.423Z,90.50
2018-12-06T22:17:38.955Z,90.60
2018-12-06T22:22:47.663Z,90.60
2018-12-06T22:25:21.577Z,90.60
2018-12-06T22:27:50.144Z,91.00
2018-12-06T22:30:18.655Z,90.80
2018-12-06T22:32:47.087Z,90.80
2018-12-06T22:35:15.542Z,90.80
2018-12-06T22:37:43.988Z,90.90
2018-12-06T22:40:12.432Z,90.90
2018-12-06T22:42:40.895Z,90.70
2018-12-06T22:45:20.676Z,90.60
2018-12-06T22:47:49.102Z,90.60
2018-12-06T22:50:17.550Z,90.60
2018-12-06T22:52:46.023Z,90.60
2018-12-06T22:55:14.557Z,90.20
2018-12-06T22:57:43.128Z,90.00
2018-12-06T23:00:14.574Z,90.30
2018-12-06T23:02:43.147Z,89.60
2018-12-06T23:05:11.587Z,89.70
2018-12-06T23:07:40.030Z,89.70
2018-12-06T23:10:08.767Z,89.70
2018-12-06T23:12:37.248Z,89.40
2018-12-06T23:15:29.085Z,89.30
2018-12-06T23:17:57.732Z,89.40
2018-12-06T23:20:26.386Z,89.70
2018-12-06T23:22:54.829Z,89.70
2018-12-06T23:25:30.975Z,89.60
2018-12-06T23:28:30.113Z,89.60
2018-12-06T23:37:44.690Z,90.00
2018-12-06T23:40:13.236Z,90.50
2018-12-06T23:42:41.759Z,90.60
2018-12-06T23:45:10.403Z,90.60
2018-12-06T23:47:38.863Z,90.60
2018-12-06T23:50:07.346Z,90.70
2018-12-06T23:52:35.851Z,90.50
2018-12-06T23:55:04.447Z,90.40
2018-12-06T23:57:32.919Z,90.50
